Impacts METAR Board
IDs:

KPWG - Mc Gregor Executive, TX, US

Updated at: 0000 UTC 01 Nov 2020
Potential Impact None Slight Moderate High
Time 31/12Z 31/13Z 31/14Z 31/15Z 31/16Z 31/17Z 31/18Z 31/19Z 31/20Z 31/21Z 31/22Z 31/23Z 01/00Z
Temp43 43 46 54 62 66 69 70 72 74 73 71 64
Dewpt38 39 42 45 46 44 42 43 44 43 43 43 46
Altim30.22 30.22 30.24 30.26 30.25 30.23 30.19 30.16 30.12 30.10 30.10 30.10 30.10
VIS10 10 10 10 10 10 10 10 10 10 10 10 10
CIG-- -- -- -- -- -- -- -- -- -- -- -- --
CoverCLR------------------------
FltCatVFRVFRVFRVFRVFRVFRVFRVFRVFRVFRVFRVFRVFR
WX--------------------------
WDir20022000160170150180160190160170140
WSpd3 3 0 0 9 9 9 9 10 11 9 6 5
WGst-- -- -- -- -- -- -- -- -- -- -- -- --
Raw hourly METARs
KPWG 311156Z AUTO 20003KT 10SM CLR 06/03 A3022 RMK AO2 SLP235 60001 70002 T00610033 10072 20044 53005 $
KPWG 311256Z AUTO 22003KT 10SM 06/04 A3022 RMK AO2 SLP235 T00610039 $
KPWG 311356Z AUTO 00000KT 10SM 08/06 A3024 RMK AO2 SLP240 T00780056 $
KPWG 311456Z AUTO 00000KT 10SM 12/07 A3026 RMK AO2 SLP245 T01220072 53010 $
KPWG 311556Z AUTO 16009KT 10SM 17/08 A3025 RMK AO2 SLP239 T01670078 $
KPWG 311656Z AUTO 17009KT 10SM 19/07 A3023 RMK AO2 SLP233 P0001 T01890067 $
KPWG 311756Z AUTO 15009KT 10SM 21/06 A3019 RMK AO2 SLP222 60001 T02060056 10211 20050 58020 $
KPWG 311856Z AUTO 18009KT 10SM 21/06 A3016 RMK AO2 SLP210 T02110061 $
KPWG 311956Z AUTO 16010KT 10SM 22/07 A3012 RMK AO2 SLP196 T02220067 $
KPWG 312056Z AUTO 19011KT 10SM 23/06 A3010 RMK AO2 SLP188 T02330061 56032 $
KPWG 312156Z AUTO 16009KT 10SM 23/06 A3010 RMK AO2 SLP189 T02280061 $
KPWG 312256Z AUTO 17006KT 10SM 22/06 A3010 RMK AO2 SLP189 P0001 T02170061 $
KPWG 312356Z AUTO 14005KT 10SM 18/08 A3010 RMK AO2 SLP192 60001 T01780078 10233 20178 53001 $